Terminal Aerodrome Forecast
Issued by NWS

Current Version | Previous Version | Graphics & Text | Print | Product List | Glossary On
Versions: 1 2 3 4 5 6 7 8 9 10 11 12 13 14 15
000
FTUS41 KILN 181720
TAFLCK
TAF
KLCK 181720Z 1818/1918 23013KT P6SM BKN250
     FM182300 22007KT P6SM SCT025
     FM190600 24005KT P6SM BKN025
     FM191100 26004KT 5SM BR BKN008
     FM191400 26004KT P6SM SCT015
     FM191700 26005KT P6SM SCT250=

USA.gov is the U.S. government's official web portal to all federal, state and local government web resources and services.